Time;durP1;ratioP1;P1;durP2;ratioP2;P2;SDS_P1;SDS_P2;PMS_P1;PMS_P2;Temp;Humidity;BMP_temperature;BMP_pressure;BME280_temperature;BME280_humidity;BME280_pressure;Samples;Min_cycle;Max_cycle;Signal;HPM_P1;HPM_P2
2023/05/16 00:01:17;;;;;;;6.13;3.10;;;11.60;99.90;;;;;;5018350;28;20209;-70
2023/05/16 00:03:42;;;;;;;6.90;3.87;;;11.60;99.90;;;;;;5010456;28;20262;-69
2023/05/16 00:06:08;;;;;;;8.00;3.90;;;11.50;99.90;;;;;;5018134;28;20612;-70
2023/05/16 00:08:34;;;;;;;6.57;4.27;;;11.50;99.90;;;;;;5025827;28;20193;-70
2023/05/16 00:11:00;;;;;;;18.03;3.57;;;11.50;99.90;;;;;;5030705;28;20320;-70
2023/05/16 00:13:26;;;;;;;5.40;3.20;;;11.50;99.90;;;;;;5023510;28;20529;-70
2023/05/16 00:15:54;;;;;;;11.20;4.43;;;11.50;99.90;;;;;;5011775;28;20266;-70
2023/05/16 00:18:21;;;;;;;7.23;4.50;;;11.50;99.90;;;;;;5010252;28;20463;-70
2023/05/16 00:20:47;;;;;;;7.00;4.37;;;11.40;99.90;;;;;;5020215;28;20512;-70
2023/05/16 00:23:13;;;;;;;7.73;4.80;;;11.40;99.90;;;;;;5023145;28;20433;-70
2023/05/16 00:25:39;;;;;;;9.40;5.33;;;11.40;99.90;;;;;;5020853;28;20421;-70
2023/05/16 00:28:05;;;;;;;10.90;6.53;;;11.40;99.90;;;;;;5030753;28;20182;-70
2023/05/16 00:30:31;;;;;;;11.87;5.20;;;11.40;99.90;;;;;;5030719;28;20234;-69
2023/05/16 00:32:57;;;;;;;10.13;5.07;;;11.40;99.90;;;;;;5021578;28;21147;-70
2023/05/16 00:35:22;;;;;;;10.60;6.10;;;11.40;99.90;;;;;;5011940;28;20183;-70
2023/05/16 00:37:49;;;;;;;10.57;6.40;;;11.40;99.90;;;;;;5015806;28;20222;-70
2023/05/16 00:40:15;;;;;;;11.80;6.83;;;11.30;99.90;;;;;;5030473;28;20175;-70
2023/05/16 00:42:41;;;;;;;10.50;6.40;;;11.30;99.90;;;;;;5028799;28;20475;-69
2023/05/16 00:45:07;;;;;;;15.37;5.90;;;11.30;99.90;;;;;;5020874;28;20265;-70
2023/05/16 00:47:33;;;;;;;9.50;6.10;;;11.30;99.90;;;;;;5016898;28;20498;-70
2023/05/16 00:49:59;;;;;;;10.80;6.27;;;11.20;99.90;;;;;;5014734;28;20452;-69
2023/05/16 00:52:25;;;;;;;13.90;7.50;;;11.20;99.90;;;;;;5017685;28;20484;-70
2023/05/16 00:54:51;;;;;;;15.60;6.83;;;11.20;99.90;;;;;;5010892;28;20671;-69
2023/05/16 00:57:17;;;;;;;14.37;7.30;;;11.10;99.90;;;;;;5024305;28;20252;-69
2023/05/16 00:59:45;;;;;;;11.80;7.40;;;11.10;99.90;;;;;;5034210;28;20543;-69
2023/05/16 01:02:11;;;;;;;16.53;7.53;;;11.10;99.90;;;;;;5032321;28;20194;-70
2023/05/16 01:04:38;;;;;;;13.70;8.10;;;11.10;99.90;;;;;;5014087;28;20553;-70
2023/05/16 01:07:04;;;;;;;12.97;8.20;;;11.10;99.90;;;;;;5031523;28;20447;-70
2023/05/16 01:09:30;;;;;;;12.53;7.53;;;11.10;99.90;;;;;;5033949;28;20516;-70
2023/05/16 01:11:58;;;;;;;18.83;7.90;;;11.00;99.90;;;;;;5033669;28;20464;-70
2023/05/16 01:15:08;;;;;;;17.97;8.47;;;11.10;99.90;;;;;;5029854;28;20417;-69
2023/05/16 01:18:00;;;;;;;13.83;8.70;;;11.00;99.90;;;;;;5001322;28;20430;-70
2023/05/16 01:20:51;;;;;;;20.00;9.47;;;11.00;99.90;;;;;;5014678;28;20437;-69
2023/05/16 01:23:56;;;;;;;17.30;9.43;;;11.00;99.90;;;;;;5025920;28;20766;-70
2023/05/16 01:26:23;;;;;;;19.30;11.37;;;11.00;99.90;;;;;;5031634;28;20424;-69
2023/05/16 01:28:51;;;;;;;20.10;9.53;;;11.10;99.90;;;;;;5023211;28;20421;-69
2023/05/16 01:31:17;;;;;;;23.23;10.77;;;11.10;99.90;;;;;;5033829;28;20465;-70
2023/05/16 01:33:43;;;;;;;15.57;8.63;;;11.10;99.90;;;;;;5016517;28;20936;-70
2023/05/16 01:36:21;;;;;;;19.77;9.57;;;11.00;99.90;;;;;;5016146;28;20441;-69
2023/05/16 01:39:00;;;;;;;26.20;10.60;;;11.00;99.90;;;;;;5018223;28;20743;-69
2023/05/16 01:42:08;;;;;;;23.10;11.10;;;11.10;99.90;;;;;;5032865;28;20898;-69
2023/05/16 01:44:47;;;;;;;25.77;12.53;;;11.00;99.90;;;;;;5011168;28;20443;-69
2023/05/16 01:47:16;;;;;;;22.43;12.10;;;11.00;99.90;;;;;;5033501;28;20420;-70
2023/05/16 01:49:50;;;;;;;27.40;12.17;;;11.00;99.90;;;;;;5032986;28;20421;-69
2023/05/16 01:52:22;;;;;;;19.53;11.67;;;11.00;99.90;;;;;;5032968;28;20469;-69
2023/05/16 01:54:52;;;;;;;29.83;13.67;;;10.90;99.90;;;;;;5033216;28;20428;-69
2023/05/16 01:57:23;;;;;;;24.07;12.47;;;10.90;99.90;;;;;;5033209;28;20433;-69
2023/05/16 01:59:49;;;;;;;25.70;13.90;;;10.90;99.90;;;;;;5033127;28;20421;-70
2023/05/16 02:02:17;;;;;;;19.00;10.60;;;10.90;99.90;;;;;;5033022;28;20428;-70
2023/05/16 02:04:43;;;;;;;28.67;12.83;;;10.90;99.90;;;;;;5022389;28;20242;-69
2023/05/16 02:07:09;;;;;;;27.40;13.93;;;10.80;99.90;;;;;;5012899;28;20453;-69
2023/05/16 02:09:34;;;;;;;30.17;13.83;;;10.80;99.90;;;;;;5014631;28;20770;-69
2023/05/16 02:12:01;;;;;;;29.97;13.40;;;10.80;99.90;;;;;;5017478;28;20224;-69
2023/05/16 02:14:26;;;;;;;35.40;14.53;;;10.70;99.90;;;;;;5013784;28;20650;-69
2023/05/16 02:16:52;;;;;;;29.23;13.50;;;10.70;99.90;;;;;;5015819;28;20426;-70
2023/05/16 02:19:18;;;;;;;32.63;14.60;;;10.70;99.90;;;;;;5012733;28;20638;-69
2023/05/16 02:21:43;;;;;;;33.27;15.30;;;10.60;99.90;;;;;;5030166;28;20680;-69
2023/05/16 02:24:09;;;;;;;33.10;15.40;;;10.60;99.90;;;;;;5028538;28;20194;-70
2023/05/16 02:26:35;;;;;;;27.00;13.80;;;10.60;99.90;;;;;;5032981;28;20197;-69
2023/05/16 02:29:01;;;;;;;32.27;14.43;;;10.60;99.90;;;;;;5032589;28;20194;-70
2023/05/16 02:31:30;;;;;;;31.67;13.60;;;10.50;99.90;;;;;;5032415;28;20217;-69
2023/05/16 02:33:57;;;;;;;35.63;14.80;;;10.50;99.90;;;;;;5032216;28;20186;-70
2023/05/16 02:36:23;;;;;;;32.20;15.23;;;10.40;99.90;;;;;;5022329;28;20457;-69
2023/05/16 02:38:49;;;;;;;32.00;14.80;;;10.50;99.90;;;;;;5032425;28;20508;-70
2023/05/16 02:41:15;;;;;;;28.53;14.87;;;10.40;99.90;;;;;;5032049;28;20918;-69
2023/05/16 02:43:41;;;;;;;31.67;15.03;;;10.40;99.90;;;;;;5032201;28;20222;-70
2023/05/16 02:46:29;;;;;;;26.33;13.73;;;10.40;99.90;;;;;;5032350;28;20183;-70
2023/05/16 02:48:55;;;;;;;30.77;14.87;;;10.40;99.90;;;;;;5032157;28;20475;-69
2023/05/16 02:51:23;;;;;;;37.23;15.33;;;10.40;99.90;;;;;;5032316;28;20479;-69
2023/05/16 02:53:49;;;;;;;30.97;15.13;;;10.30;99.90;;;;;;5031816;28;20457;-69
2023/05/16 02:56:15;;;;;;;39.80;18.07;;;10.30;99.90;;;;;;5023634;28;20536;-69
2023/05/16 02:58:41;;;;;;;36.13;17.00;;;10.30;99.90;;;;;;5019384;28;20509;-69
2023/05/16 03:01:07;;;;;;;47.43;17.30;;;10.50;99.90;;;;;;5032126;28;20437;-70
2023/05/16 03:03:34;;;;;;;37.43;18.83;;;10.30;99.90;;;;;;5024251;28;20496;-69
2023/05/16 03:06:00;;;;;;;34.93;16.23;;;10.40;99.90;;;;;;5027733;28;20425;-70
2023/05/16 03:08:26;;;;;;;38.37;18.47;;;10.40;99.90;;;;;;5031448;28;20814;-69
2023/05/16 03:10:52;;;;;;;34.37;18.60;;;10.40;99.90;;;;;;5031367;28;20225;-69
2023/05/16 03:13:17;;;;;;;36.60;16.90;;;10.40;99.90;;;;;;5032206;28;20265;-69
2023/05/16 03:15:43;;;;;;;39.20;20.13;;;10.30;99.90;;;;;;5027175;28;20206;-69
2023/05/16 03:18:10;;;;;;;38.20;18.10;;;10.30;99.90;;;;;;5012690;28;20218;-70
2023/05/16 03:20:36;;;;;;;37.80;18.70;;;10.30;99.90;;;;;;5020146;28;20443;-69
2023/05/16 03:23:02;;;;;;;37.47;17.87;;;10.30;99.90;;;;;;5027447;28;20475;-69
2023/05/16 03:25:28;;;;;;;46.30;18.60;;;10.30;99.90;;;;;;5032063;28;20429;-70
2023/05/16 03:27:53;;;;;;;35.27;17.63;;;10.30;99.90;;;;;;5032345;28;20425;-69
2023/05/16 03:30:19;;;;;;;41.33;18.80;;;10.30;99.90;;;;;;5032293;28;20186;-70
2023/05/16 03:32:45;;;;;;;41.23;19.23;;;10.30;99.90;;;;;;5008940;28;20330;-69
2023/05/16 03:35:11;;;;;;;37.77;18.97;;;10.40;99.90;;;;;;5019630;28;20308;-70
2023/05/16 03:37:37;;;;;;;39.17;19.43;;;10.40;99.90;;;;;;5024395;28;20217;-70
2023/05/16 03:40:07;;;;;;;44.20;20.50;;;10.40;99.90;;;;;;5013686;28;20182;-70
2023/05/16 03:42:32;;;;;;;50.93;18.63;;;10.40;99.90;;;;;;5015608;28;20410;-69
2023/05/16 03:44:58;;;;;;;47.07;20.33;;;10.30;99.90;;;;;;5032243;28;20816;-70
2023/05/16 03:47:24;;;;;;;39.50;20.63;;;10.30;99.90;;;;;;5031954;28;20638;-70
2023/05/16 03:49:49;;;;;;;52.77;20.60;;;10.30;99.90;;;;;;5030632;28;20290;-69
2023/05/16 03:52:15;;;;;;;52.33;23.33;;;10.30;99.90;;;;;;5030416;28;20582;-69
2023/05/16 03:54:40;;;;;;;46.67;18.70;;;10.30;99.90;;;;;;5031216;28;20630;-69
2023/05/16 03:57:06;;;;;;;52.40;21.80;;;10.40;99.90;;;;;;5031009;28;20186;-69
2023/05/16 03:59:33;;;;;;;44.00;20.13;;;10.40;99.90;;;;;;5031094;28;20816;-69
2023/05/16 04:01:59;;;;;;;39.57;19.10;;;10.40;99.90;;;;;;5029177;28;20190;-69
2023/05/16 04:04:24;;;;;;;38.77;19.23;;;10.40;99.90;;;;;;5015127;28;20436;-70
2023/05/16 04:06:50;;;;;;;41.43;21.70;;;10.40;99.90;;;;;;5025542;28;20201;-69
2023/05/16 04:09:16;;;;;;;52.60;19.63;;;10.40;99.90;;;;;;5030957;28;20190;-69
2023/05/16 04:11:42;;;;;;;45.73;19.30;;;10.50;99.90;;;;;;5030519;28;20206;-69
2023/05/16 04:14:07;;;;;;;44.13;19.43;;;10.50;99.90;;;;;;5030987;28;20228;-69
2023/05/16 04:16:33;;;;;;;39.73;20.43;;;10.50;99.90;;;;;;5018952;28;20414;-69
2023/05/16 04:18:58;;;;;;;48.93;21.00;;;10.40;99.90;;;;;;5010599;28;20266;-69
2023/05/16 04:21:24;;;;;;;51.77;21.33;;;10.50;99.90;;;;;;5024779;28;20186;-69
2023/05/16 04:23:50;;;;;;;36.67;18.87;;;10.60;99.90;;;;;;5026801;28;20186;-69
2023/05/16 04:26:15;;;;;;;50.30;21.77;;;10.50;99.90;;;;;;5030153;28;20197;-70
2023/05/16 04:28:41;;;;;;;48.93;22.67;;;10.50;99.90;;;;;;5030800;28;20270;-69
2023/05/16 04:31:07;;;;;;;45.63;21.20;;;10.50;99.90;;;;;;5029589;28;20244;-69
2023/05/16 04:33:33;;;;;;;45.60;19.13;;;10.60;99.90;;;;;;5016201;28;20197;-70
2023/05/16 04:35:59;;;;;;;44.83;19.23;;;10.60;99.90;;;;;;5025070;28;20931;-69
2023/05/16 04:38:25;;;;;;;44.27;19.53;;;10.50;99.90;;;;;;5031208;28;20182;-69
2023/05/16 04:40:51;;;;;;;50.63;22.23;;;10.60;99.90;;;;;;5030563;28;20429;-69
2023/05/16 04:43:17;;;;;;;52.17;21.57;;;10.60;99.90;;;;;;5030511;28;20902;-73
2023/05/16 04:45:43;;;;;;;41.37;22.87;;;10.60;99.90;;;;;;5030613;28;20429;-69
2023/05/16 04:48:10;;;;;;;44.00;19.47;;;10.70;99.90;;;;;;5030914;28;20436;-69
2023/05/16 04:50:36;;;;;;;34.43;19.33;;;10.60;99.90;;;;;;5029737;28;20206;-70
2023/05/16 04:53:01;;;;;;;46.03;17.53;;;10.70;99.90;;;;;;5030359;28;20436;-69
2023/05/16 04:55:27;;;;;;;45.47;19.33;;;10.60;99.90;;;;;;5030437;28;20186;-67
2023/05/16 04:57:52;;;;;;;36.40;18.57;;;10.70;99.90;;;;;;5022791;28;20191;-67
2023/05/16 05:00:18;;;;;;;32.80;17.40;;;10.70;99.90;;;;;;5011906;28;20186;-67
2023/05/16 05:02:44;;;;;;;38.83;18.00;;;10.80;99.90;;;;;;5030379;28;20183;-67
2023/05/16 05:05:10;;;;;;;39.03;19.10;;;10.70;99.90;;;;;;5028472;28;20209;-68
2023/05/16 05:07:35;;;;;;;42.53;19.60;;;10.70;99.90;;;;;;5030788;28;20547;-67
2023/05/16 05:10:01;;;;;;;39.50;17.20;;;10.70;99.90;;;;;;5030432;28;20193;-67
2023/05/16 05:12:27;;;;;;;42.13;18.27;;;10.80;99.90;;;;;;5030075;28;20214;-67
2023/05/16 05:14:53;;;;;;;36.90;19.30;;;10.70;99.90;;;;;;5030379;28;20247;-67
2023/05/16 05:17:20;;;;;;;45.33;17.93;;;10.70;99.90;;;;;;5012388;28;20518;-67
2023/05/16 05:19:47;;;;;;;38.87;18.40;;;10.70;99.90;;;;;;5009839;28;20472;-67
2023/05/16 05:22:13;;;;;;;35.47;18.80;;;10.70;99.90;;;;;;5029978;28;20428;-68
2023/05/16 05:24:38;;;;;;;46.87;17.90;;;10.70;99.90;;;;;;5026090;28;20425;-68
2023/05/16 05:27:04;;;;;;;41.90;18.20;;;10.70;99.90;;;;;;5030159;28;20905;-68
2023/05/16 05:29:30;;;;;;;50.50;20.00;;;10.80;99.90;;;;;;5030095;28;20190;-68
2023/05/16 05:31:56;;;;;;;38.33;19.37;;;10.80;99.90;;;;;;5029941;28;20488;-69
2023/05/16 05:34:21;;;;;;;34.37;18.23;;;10.90;99.90;;;;;;5024695;28;20229;-68
2023/05/16 05:36:47;;;;;;;37.53;17.20;;;10.80;99.90;;;;;;5033851;28;20187;-68
2023/05/16 05:39:13;;;;;;;44.87;18.97;;;10.90;99.90;;;;;;5033975;28;20243;-68
2023/05/16 05:41:38;;;;;;;35.60;16.53;;;10.80;99.90;;;;;;5033278;28;20209;-68
2023/05/16 05:44:05;;;;;;;39.83;19.13;;;10.80;99.90;;;;;;5033559;28;20245;-68
2023/05/16 05:46:32;;;;;;;41.73;18.57;;;10.80;99.90;;;;;;5033958;28;20559;-68
2023/05/16 05:48:58;;;;;;;42.00;19.17;;;10.80;99.90;;;;;;5032572;28;20552;-68
2023/05/16 05:51:24;;;;;;;35.87;17.70;;;10.80;99.90;;;;;;5033560;28;20548;-68
2023/05/16 05:53:51;;;;;;;38.80;19.00;;;10.80;99.90;;;;;;5032368;28;20432;-69
2023/05/16 05:56:17;;;;;;;37.33;17.30;;;10.80;99.90;;;;;;5021255;28;20429;-67
2023/05/16 05:58:42;;;;;;;39.70;18.03;;;10.80;99.90;;;;;;5033464;28;20432;-68
2023/05/16 06:01:10;;;;;;;37.53;18.60;;;10.80;99.90;;;;;;5033396;28;20188;-68
2023/05/16 06:03:35;;;;;;;45.40;19.50;;;10.80;99.90;;;;;;5030255;28;20194;-68
2023/05/16 06:06:02;;;;;;;42.90;16.90;;;10.80;99.90;;;;;;5032415;28;20429;-68
2023/05/16 06:08:28;;;;;;;36.10;15.40;;;10.80;99.90;;;;;;5032960;28;20204;-68
2023/05/16 06:10:53;;;;;;;42.57;18.03;;;10.80;99.90;;;;;;5032869;28;20472;-69
2023/05/16 06:13:19;;;;;;;31.07;16.30;;;10.80;99.90;;;;;;5032235;28;20187;-69
2023/05/16 06:15:52;;;;;;;32.30;16.40;;;10.90;99.90;;;;;;5027227;28;20225;-68
2023/05/16 06:18:18;;;;;;;36.70;15.67;;;10.90;99.90;;;;;;5013290;28;20246;-69
2023/05/16 06:20:44;;;;;;;28.90;14.80;;;11.10;99.90;;;;;;5012671;28;20433;-69
2023/05/16 06:23:10;;;;;;;28.93;16.40;;;10.90;99.90;;;;;;5023985;28;20430;-69
2023/05/16 06:25:35;;;;;;;35.33;16.33;;;10.90;99.90;;;;;;5033150;28;20189;-68
2023/05/16 06:28:01;;;;;;;29.17;16.00;;;11.00;99.90;;;;;;5032778;28;20186;-68
2023/05/16 06:30:26;;;;;;;34.70;16.17;;;11.00;99.90;;;;;;5032841;28;20575;-69
2023/05/16 06:32:52;;;;;;;28.63;15.50;;;11.00;99.90;;;;;;5032286;28;20201;-68
2023/05/16 06:35:18;;;;;;;31.03;15.97;;;11.00;99.90;;;;;;5023880;28;20189;-69
2023/05/16 06:37:43;;;;;;;36.27;16.20;;;11.00;99.90;;;;;;5032780;28;20191;-68
2023/05/16 06:40:10;;;;;;;26.57;15.27;;;11.10;99.90;;;;;;5023207;28;20190;-68
2023/05/16 06:42:35;;;;;;;27.40;14.33;;;11.00;99.90;;;;;;5032398;28;20189;-68
2023/05/16 06:45:01;;;;;;;30.87;14.43;;;11.10;99.90;;;;;;5031838;28;20433;-68
2023/05/16 06:47:26;;;;;;;31.03;13.80;;;10.90;99.90;;;;;;5032828;28;20339;-68
2023/05/16 06:49:52;;;;;;;21.37;12.77;;;11.10;99.90;;;;;;5032058;28;20183;-68
2023/05/16 06:52:18;;;;;;;27.87;13.57;;;11.00;99.90;;;;;;5018696;28;20213;-68
2023/05/16 06:54:43;;;;;;;27.00;14.00;;;11.00;99.90;;;;;;5032435;28;20190;-69
2023/05/16 06:57:09;;;;;;;27.63;12.80;;;11.00;99.90;;;;;;5032538;28;20191;-68
2023/05/16 06:59:35;;;;;;;26.97;12.93;;;11.00;99.90;;;;;;5023867;28;20621;-69
2023/05/16 07:02:01;;;;;;;25.87;13.07;;;11.00;99.90;;;;;;5027075;28;20236;-68
2023/05/16 07:04:26;;;;;;;29.97;13.50;;;11.10;99.90;;;;;;5031389;28;20945;-68
2023/05/16 07:06:52;;;;;;;24.90;12.13;;;11.10;99.90;;;;;;5032149;28;20198;-68
2023/05/16 07:09:20;;;;;;;28.07;13.70;;;11.10;99.90;;;;;;5030574;28;20232;-68
2023/05/16 07:11:45;;;;;;;30.00;14.33;;;11.00;99.90;;;;;;5031637;28;20203;-69
2023/05/16 07:14:11;;;;;;;30.03;13.07;;;11.00;99.90;;;;;;5031505;28;20427;-68
2023/05/16 07:16:37;;;;;;;25.70;13.57;;;11.00;99.90;;;;;;5019367;28;20205;-68
2023/05/16 07:19:02;;;;;;;26.30;12.00;;;10.90;99.90;;;;;;5011275;28;20211;-68
2023/05/16 07:21:28;;;;;;;18.93;10.63;;;10.80;99.90;;;;;;5026859;28;20193;-69
2023/05/16 07:23:54;;;;;;;23.03;13.27;;;10.80;99.90;;;;;;5027732;28;20224;-68
2023/05/16 07:26:22;;;;;;;25.47;11.80;;;10.80;99.90;;;;;;5032120;28;20186;-68
2023/05/16 07:28:51;;;;;;;25.57;12.93;;;10.80;99.90;;;;;;5024589;28;20209;-68
2023/05/16 07:31:17;;;;;;;36.33;13.83;;;10.90;99.90;;;;;;5013490;28;20921;-68
2023/05/16 07:33:45;;;;;;;23.60;11.90;;;10.80;99.90;;;;;;5030073;28;20504;-68
2023/05/16 07:36:12;;;;;;;34.63;13.83;;;10.70;99.90;;;;;;5019613;28;20252;-68
2023/05/16 07:38:38;;;;;;;31.50;12.30;;;10.70;99.90;;;;;;5026501;28;20957;-68
2023/05/16 07:41:03;;;;;;;27.27;12.60;;;10.90;99.90;;;;;;5023754;28;20426;-68
2023/05/16 07:43:29;;;;;;;35.30;11.30;;;10.70;99.90;;;;;;5018639;28;20584;-68
2023/05/16 07:45:54;;;;;;;23.37;10.20;;;10.70;99.90;;;;;;5029764;28;20194;-68
2023/05/16 07:48:20;;;;;;;24.27;11.77;;;10.60;99.90;;;;;;5026882;28;20186;-68
2023/05/16 07:50:46;;;;;;;27.87;12.20;;;10.70;99.90;;;;;;5027302;28;20256;-77
2023/05/16 07:53:11;;;;;;;21.87;10.33;;;10.70;99.90;;;;;;5020998;28;20178;-77
2023/05/16 07:55:37;;;;;;;27.90;12.07;;;11.00;99.90;;;;;;5030611;28;20202;-68
2023/05/16 07:58:03;;;;;;;23.37;10.60;;;10.90;99.90;;;;;;5029803;28;20197;-68
2023/05/16 08:00:29;;;;;;;22.27;10.30;;;11.10;99.90;;;;;;5015599;28;20183;-68
2023/05/16 08:02:55;;;;;;;24.97;10.00;;;11.10;99.90;;;;;;5029165;28;20182;-69
2023/05/16 08:05:23;;;;;;;17.87;10.13;;;11.20;99.90;;;;;;5029247;28;20623;-68
2023/05/16 08:07:48;;;;;;;13.10;7.50;;;11.20;99.90;;;;;;5030145;28;20464;-68
2023/05/16 08:10:14;;;;;;;19.20;8.80;;;11.10;99.90;;;;;;5027947;28;20437;-69
2023/05/16 08:12:39;;;;;;;21.97;9.17;;;11.00;99.90;;;;;;5029170;28;20218;-67
2023/05/16 08:15:06;;;;;;;20.87;9.50;;;11.00;99.90;;;;;;5016163;28;20206;-68
2023/05/16 08:17:31;;;;;;;16.97;7.60;;;10.90;99.90;;;;;;5010032;28;20190;-69
2023/05/16 08:19:58;;;;;;;14.93;7.40;;;11.00;99.90;;;;;;5003647;28;20431;-68
2023/05/16 08:22:25;;;;;;;18.20;8.80;;;11.10;99.90;;;;;;5009079;28;20222;-69
2023/05/16 08:24:50;;;;;;;22.43;9.50;;;11.20;99.90;;;;;;5010934;28;20432;-69
2023/05/16 08:27:16;;;;;;;20.57;9.23;;;11.20;99.90;;;;;;5011287;28;20910;-69
2023/05/16 08:29:42;;;;;;;17.77;7.83;;;11.20;99.90;;;;;;5009698;28;20245;-69
2023/05/16 08:32:09;;;;;;;18.70;8.10;;;11.40;99.90;;;;;;5008798;28;20207;-69
2023/05/16 08:34:35;;;;;;;13.00;7.57;;;11.50;99.90;;;;;;4998498;28;20192;-69
2023/05/16 08:37:01;;;;;;;15.77;7.73;;;11.50;99.90;;;;;;5019395;28;20414;-68
2023/05/16 08:39:27;;;;;;;10.67;6.17;;;11.50;99.90;;;;;;5008643;28;20783;-69
2023/05/16 08:41:53;;;;;;;10.77;6.07;;;11.50;99.90;;;;;;5008353;28;20183;-68
2023/05/16 08:44:20;;;;;;;10.37;5.60;;;11.40;99.90;;;;;;5024406;28;20921;-69
2023/05/16 08:46:52;;;;;;;22.70;8.40;;;11.40;99.90;;;;;;5020294;28;20190;-68
2023/05/16 08:49:19;;;;;;;16.57;7.73;;;11.30;99.90;;;;;;5005452;28;20434;-68
2023/05/16 08:51:46;;;;;;;12.60;6.90;;;11.20;99.90;;;;;;4999551;28;20835;-69
2023/05/16 08:54:13;;;;;;;13.97;7.70;;;11.10;99.90;;;;;;5009385;28;20894;-69
2023/05/16 08:56:40;;;;;;;14.40;8.20;;;11.10;99.90;;;;;;5009730;28;20484;-69
2023/05/16 08:59:06;;;;;;;14.70;7.27;;;11.10;99.90;;;;;;5009385;28;20421;-69
2023/05/16 09:01:32;;;;;;;17.57;8.83;;;10.90;99.90;;;;;;5010247;28;20418;-69
2023/05/16 09:03:59;;;;;;;16.93;8.53;;;11.00;99.90;;;;;;5012782;28;20440;-69
2023/05/16 09:06:26;;;;;;;24.53;11.33;;;11.00;99.90;;;;;;5010144;28;20207;-69
2023/05/16 09:08:55;;;;;;;19.37;9.77;;;10.90;99.90;;;;;;5014372;28;20525;-69
2023/05/16 09:11:20;;;;;;;14.53;7.77;;;11.00;99.90;;;;;;5014005;28;20465;-69
2023/05/16 09:13:47;;;;;;;21.27;10.00;;;11.00;99.90;;;;;;5014487;28;20536;-69
2023/05/16 09:16:14;;;;;;;20.10;9.50;;;11.00;99.90;;;;;;5014195;28;20186;-69
2023/05/16 09:18:42;;;;;;;17.70;8.90;;;11.00;99.90;;;;;;5013552;28;20477;-69
2023/05/16 09:21:10;;;;;;;15.50;8.07;;;11.10;99.90;;;;;;5014047;28;20516;-69
2023/05/16 09:23:36;;;;;;;16.37;8.70;;;11.10;99.90;;;;;;5007990;28;20438;-69
2023/05/16 09:26:04;;;;;;;28.47;11.50;;;11.00;99.90;;;;;;5007207;28;20429;-68
2023/05/16 09:28:30;;;;;;;18.07;9.77;;;11.00;99.90;;;;;;5014515;28;20521;-69
2023/05/16 09:30:58;;;;;;;21.03;9.80;;;11.00;99.90;;;;;;5013966;28;20469;-69
2023/05/16 09:33:27;;;;;;;21.40;10.60;;;10.90;99.90;;;;;;5012535;28;20437;-69
2023/05/16 09:35:59;;;;;;;19.27;10.10;;;11.00;99.90;;;;;;5013805;28;20770;-69
2023/05/16 09:38:26;;;;;;;20.13;10.53;;;11.20;99.90;;;;;;5000923;28;20425;-69
2023/05/16 09:40:53;;;;;;;17.87;8.70;;;11.20;99.90;;;;;;5013980;28;20951;-68
2023/05/16 09:43:23;;;;;;;21.90;9.80;;;11.30;99.90;;;;;;5013917;28;20426;-69
2023/05/16 09:45:50;;;;;;;21.10;10.43;;;11.30;99.90;;;;;;5027294;28;20444;-69
2023/05/16 09:48:16;;;;;;;28.47;10.63;;;11.20;99.90;;;;;;5025938;28;20456;-69
2023/05/16 09:50:51;;;;;;;17.40;8.60;;;11.40;99.90;;;;;;5011703;28;20800;-69
2023/05/16 09:53:24;;;;;;;21.13;9.20;;;11.50;99.90;;;;;;5013791;28;20417;-69
2023/05/16 09:55:59;;;;;;;24.33;11.10;;;11.60;99.90;;;;;;5014010;28;20753;-68
2023/05/16 09:58:30;;;;;;;17.83;10.00;;;11.70;99.90;;;;;;5013958;28;20433;-69
2023/05/16 10:00:57;;;;;;;16.47;7.57;;;11.60;99.90;;;;;;5013574;28;20421;-69
2023/05/16 10:03:24;;;;;;;16.20;7.23;;;11.50;99.90;;;;;;5013259;28;20455;-68
2023/05/16 10:05:51;;;;;;;17.57;9.10;;;11.60;99.90;;;;;;5013050;28;20433;-69
2023/05/16 10:08:20;;;;;;;19.47;9.17;;;11.70;99.90;;;;;;5013506;28;20434;-68
2023/05/16 10:10:49;;;;;;;22.20;9.70;;;11.70;99.90;;;;;;4999000;28;20551;-69
2023/05/16 10:13:15;;;;;;;15.77;8.60;;;12.00;99.90;;;;;;5013330;28;20852;-69
2023/05/16 10:15:41;;;;;;;21.77;9.87;;;12.10;99.90;;;;;;5013367;28;20891;-69
2023/05/16 10:18:11;;;;;;;13.30;6.93;;;12.30;99.90;;;;;;5012929;28;20841;-67
2023/05/16 10:20:41;;;;;;;19.33;9.40;;;12.30;99.90;;;;;;5006212;28;20414;-67
2023/05/16 10:23:10;;;;;;;15.60;7.90;;;12.30;99.90;;;;;;5011328;28;20434;-67
2023/05/16 10:25:40;;;;;;;16.23;8.30;;;12.20;99.90;;;;;;5012804;28;20770;-67
2023/05/16 10:28:07;;;;;;;17.53;8.37;;;12.20;99.90;;;;;;5013126;28;20838;-68
2023/05/16 10:30:34;;;;;;;23.33;7.80;;;12.20;99.90;;;;;;5013135;28;20421;-68
2023/05/16 10:33:01;;;;;;;11.80;7.00;;;12.30;99.90;;;;;;5012772;28;20414;-67
2023/05/16 10:35:27;;;;;;;17.07;8.73;;;12.30;99.90;;;;;;5012450;28;20849;-67
2023/05/16 10:37:53;;;;;;;22.33;8.60;;;12.50;99.90;;;;;;5013002;28;20426;-68
2023/05/16 10:40:20;;;;;;;19.37;7.30;;;12.30;99.90;;;;;;5023064;28;20195;-67
2023/05/16 10:42:56;;;;;;;16.73;6.80;;;12.10;99.90;;;;;;5015531;28;20483;-67
2023/05/16 10:45:22;;;;;;;15.23;7.47;;;11.80;99.90;;;;;;5013080;28;20471;-67
2023/05/16 10:48:05;;;;;;;16.73;7.20;;;11.70;99.90;;;;;;5012780;28;20426;-67
2023/05/16 10:50:45;;;;;;;18.63;8.17;;;11.60;99.90;;;;;;5017479;28;20433;-67
2023/05/16 10:53:33;;;;;;;15.77;7.80;;;11.50;99.90;;;;;;5010561;28;20428;-67
2023/05/16 10:55:58;;;;;;;11.77;6.83;;;11.40;99.90;;;;;;5012636;28;20442;-67
2023/05/16 10:58:37;;;;;;;14.20;6.80;;;11.30;99.90;;;;;;5017965;28;20865;-67
2023/05/16 11:01:25;;;;;;;14.37;6.47;;;11.40;99.90;;;;;;5021935;28;20592;-67
2023/05/16 11:04:00;;;;;;;9.73;6.30;;;11.40;99.90;;;;;;5019214;28;20414;-67
2023/05/16 11:06:44;;;;;;;14.57;6.80;;;11.50;99.90;;;;;;5015467;28;20436;-67
2023/05/16 11:09:13;;;;;;;16.83;6.57;;;11.60;99.90;;;;;;5012387;28;20417;-67
2023/05/16 11:11:51;;;;;;;10.83;6.30;;;11.50;99.90;;;;;;5012074;28;20470;-67
2023/05/16 11:14:31;;;;;;;15.33;6.30;;;11.50;99.90;;;;;;5002599;28;20897;-67
2023/05/16 11:17:12;;;;;;;13.17;6.00;;;11.60;99.90;;;;;;5014007;28;20426;-67
2023/05/16 11:19:48;;;;;;;12.63;5.17;;;11.70;99.90;;;;;;5005327;28;20513;-67
2023/05/16 11:22:20;;;;;;;12.73;6.00;;;11.60;99.90;;;;;;5011857;28;20560;-67
2023/05/16 11:25:01;;;;;;;16.13;7.50;;;11.50;99.90;;;;;;5025659;28;20452;-67
2023/05/16 11:27:30;;;;;;;10.30;5.17;;;11.60;99.90;;;;;;5012687;28;20453;-67
2023/05/16 11:30:05;;;;;;;6.93;4.47;;;11.50;99.90;;;;;;5011644;28;20415;-67
2023/05/16 11:32:33;;;;;;;9.57;5.03;;;11.40;99.90;;;;;;5011643;28;20496;-67
2023/05/16 11:35:00;;;;;;;16.03;4.97;;;11.30;99.90;;;;;;5011266;28;20418;-67
2023/05/16 11:37:27;;;;;;;8.20;3.57;;;11.30;99.90;;;;;;5012009;28;20418;-67
2023/05/16 11:39:53;;;;;;;7.90;4.67;;;11.20;99.90;;;;;;5012110;28;20414;-67
2023/05/16 11:42:18;;;;;;;6.93;3.53;;;11.10;99.90;;;;;;5023110;28;20504;-67
2023/05/16 11:44:44;;;;;;;12.67;5.03;;;11.00;99.90;;;;;;4998989;28;20757;-67
2023/05/16 11:47:11;;;;;;;11.63;4.53;;;11.00;99.90;;;;;;5010527;28;20217;-68
2023/05/16 11:49:36;;;;;;;11.80;4.93;;;10.90;99.90;;;;;;5017256;28;20269;-68
2023/05/16 11:52:03;;;;;;;11.63;6.07;;;10.70;99.90;;;;;;5009542;28;20558;-69
2023/05/16 11:54:29;;;;;;;10.63;6.50;;;10.60;99.90;;;;;;5011432;28;20266;-69
2023/05/16 11:56:55;;;;;;;15.30;6.10;;;10.60;99.90;;;;;;5014016;28;20422;-68
2023/05/16 11:59:21;;;;;;;9.77;4.90;;;10.60;99.90;;;;;;5008700;28;20444;-69
2023/05/16 12:01:48;;;;;;;10.23;5.77;;;10.60;99.90;;;;;;5009742;28;21224;-68
2023/05/16 12:04:15;;;;;;;9.63;5.47;;;10.60;99.90;;;;;;5009802;28;20550;-69
2023/05/16 12:06:43;;;;;;;8.40;4.93;;;10.60;99.90;;;;;;5009937;28;20448;-69
2023/05/16 12:09:13;;;;;;;9.70;4.20;;;10.70;99.90;;;;;;5010430;28;20425;-69
2023/05/16 12:11:43;;;;;;;10.20;5.03;;;10.70;99.90;;;;;;5009706;28;20469;-69
2023/05/16 12:14:11;;;;;;;6.23;4.13;;;10.70;99.90;;;;;;5009832;28;20426;-68
2023/05/16 12:16:38;;;;;;;8.90;4.30;;;10.70;99.90;;;;;;5007983;28;20422;-69
2023/05/16 12:19:05;;;;;;;7.43;3.67;;;10.70;99.90;;;;;;5006330;28;20414;-69
2023/05/16 12:21:31;;;;;;;12.87;4.67;;;10.70;99.90;;;;;;5024495;28;20436;-68
2023/05/16 12:23:57;;;;;;;8.70;3.90;;;10.80;99.90;;;;;;5016519;28;20430;-69
2023/05/16 12:26:31;;;;;;;7.63;3.63;;;10.80;99.90;;;;;;5010062;28;21056;-69
2023/05/16 12:28:59;;;;;;;6.63;3.60;;;10.90;99.90;;;;;;5010204;28;20474;-68
2023/05/16 12:31:26;;;;;;;10.87;3.53;;;10.80;99.90;;;;;;5009844;28;21001;-69
2023/05/16 12:33:55;;;;;;;6.30;3.93;;;10.80;99.90;;;;;;5009520;28;20430;-68
2023/05/16 12:36:22;;;;;;;11.40;3.90;;;10.90;99.90;;;;;;5009287;28;20430;-69